Time;durP1;ratioP1;P1;durP2;ratioP2;P2;SDS_P1;SDS_P2;PMS_P1;PMS_P2;Temp;Humidity;BMP_temperature;BMP_pressure;BME280_temperature;BME280_humidity;BME280_pressure;Samples;Min_cycle;Max_cycle;Signal;HPM_P1;HPM_P2
2022/05/31 00:00:14;;;;;;;4.10;3.70;;;10.20;81.00;;;;;;5097353;28;20429;-44
2022/05/31 00:02:41;;;;;;;4.20;3.47;;;10.20;81.60;;;;;;5097188;28;20696;-45
2022/05/31 00:05:09;;;;;;;3.93;3.50;;;10.20;82.00;;;;;;5080205;28;20446;-45
2022/05/31 00:07:40;;;;;;;4.30;3.30;;;10.20;82.60;;;;;;5098429;28;20462;-45
2022/05/31 00:10:08;;;;;;;6.70;3.70;;;10.10;83.00;;;;;;5097497;28;20427;-45
2022/05/31 00:12:33;;;;;;;5.03;4.40;;;10.10;83.30;;;;;;5093316;28;20933;-45
2022/05/31 00:15:00;;;;;;;3.63;3.33;;;10.10;83.50;;;;;;5095148;28;20462;-45
2022/05/31 00:17:26;;;;;;;4.57;3.40;;;10.00;83.50;;;;;;5097815;28;20181;-44
2022/05/31 00:19:52;;;;;;;4.00;3.50;;;10.00;84.20;;;;;;5097398;28;20436;-45
2022/05/31 00:22:21;;;;;;;4.60;4.17;;;10.00;84.90;;;;;;5097861;28;20480;-45
2022/05/31 00:24:47;;;;;;;4.93;3.87;;;10.00;84.80;;;;;;5097653;28;20280;-45
2022/05/31 00:27:16;;;;;;;6.50;4.10;;;9.90;86.00;;;;;;5096281;28;20483;-45
2022/05/31 00:29:44;;;;;;;3.77;3.47;;;9.80;86.50;;;;;;5091792;28;20467;-45
2022/05/31 00:32:11;;;;;;;4.03;3.73;;;9.80;86.50;;;;;;5096504;28;20416;-45
2022/05/31 00:34:39;;;;;;;4.20;3.80;;;9.80;87.60;;;;;;5096960;28;20450;-45
2022/05/31 00:37:04;;;;;;;4.67;4.20;;;9.70;87.90;;;;;;5097659;28;20738;-45
2022/05/31 00:39:30;;;;;;;4.20;3.70;;;9.70;88.00;;;;;;5097705;28;20415;-44
2022/05/31 00:42:00;;;;;;;4.30;4.00;;;9.70;88.40;;;;;;5097512;28;20169;-45
2022/05/31 00:44:28;;;;;;;4.30;3.90;;;9.60;88.80;;;;;;5094607;28;20280;-45
2022/05/31 00:47:13;;;;;;;4.50;4.10;;;9.60;89.60;;;;;;5094507;28;20777;-44
2022/05/31 00:49:43;;;;;;;5.00;3.57;;;9.50;89.70;;;;;;5097959;28;20426;-44
2022/05/31 00:52:25;;;;;;;4.17;3.80;;;9.50;89.80;;;;;;5096426;28;20418;-44
2022/05/31 00:55:06;;;;;;;4.20;3.53;;;9.40;89.90;;;;;;5096702;28;20452;-45
2022/05/31 00:57:33;;;;;;;4.40;3.90;;;9.40;90.20;;;;;;5097366;28;20509;-45
2022/05/31 01:00:05;;;;;;;4.50;4.10;;;9.40;90.30;;;;;;5090490;28;20435;-44
2022/05/31 01:02:31;;;;;;;4.07;3.60;;;9.40;90.30;;;;;;5097730;28;20419;-44
2022/05/31 01:04:59;;;;;;;4.10;3.80;;;9.30;90.30;;;;;;5097366;28;20473;-45
2022/05/31 01:07:25;;;;;;;4.50;4.07;;;9.30;90.50;;;;;;5096391;28;20465;-46
2022/05/31 01:09:51;;;;;;;4.40;4.00;;;9.30;90.50;;;;;;5097455;28;20499;-46
2022/05/31 01:12:17;;;;;;;4.50;3.80;;;9.30;90.40;;;;;;5097333;28;20413;-46
2022/05/31 01:14:43;;;;;;;4.40;4.00;;;9.30;90.70;;;;;;5097391;28;20181;-46
2022/05/31 01:17:16;;;;;;;4.47;3.90;;;9.20;90.80;;;;;;5090700;28;20519;-46
2022/05/31 01:19:59;;;;;;;4.40;4.00;;;9.20;90.90;;;;;;5096496;28;20204;-46
2022/05/31 01:22:44;;;;;;;5.03;3.83;;;9.20;91.10;;;;;;5096661;28;20411;-46
2022/05/31 01:25:24;;;;;;;4.00;3.60;;;9.20;91.20;;;;;;5097027;28;20430;-45
2022/05/31 01:28:10;;;;;;;4.30;3.90;;;9.10;91.30;;;;;;5097041;28;20517;-46
2022/05/31 01:30:42;;;;;;;3.67;3.37;;;9.10;91.40;;;;;;5097343;28;20488;-46
2022/05/31 01:33:34;;;;;;;3.30;3.10;;;9.10;91.50;;;;;;5093896;28;20473;-46
2022/05/31 01:36:05;;;;;;;4.17;3.80;;;9.10;91.60;;;;;;5097047;28;20929;-46
2022/05/31 01:38:36;;;;;;;4.30;3.50;;;9.10;91.60;;;;;;5099626;28;20489;-45
2022/05/31 01:41:16;;;;;;;4.43;4.03;;;9.10;91.50;;;;;;5100011;28;20414;-45
2022/05/31 01:43:44;;;;;;;4.77;3.80;;;9.10;91.60;;;;;;5099275;28;20523;-46
2022/05/31 01:46:12;;;;;;;6.50;4.30;;;9.10;91.80;;;;;;5099786;28;20442;-46
2022/05/31 01:48:40;;;;;;;4.73;4.33;;;9.10;92.00;;;;;;5100911;28;20507;-44
2022/05/31 01:51:06;;;;;;;4.60;4.07;;;9.10;92.10;;;;;;5100982;28;20897;-43
2022/05/31 01:53:32;;;;;;;5.17;4.67;;;9.10;91.90;;;;;;5100742;28;20458;-44
2022/05/31 01:55:58;;;;;;;4.80;4.37;;;9.10;91.80;;;;;;5099651;28;20729;-46
2022/05/31 01:58:27;;;;;;;6.27;3.97;;;9.00;91.80;;;;;;5100413;28;20756;-45
2022/05/31 02:00:53;;;;;;;3.83;3.47;;;9.00;91.90;;;;;;5100605;28;20477;-46
2022/05/31 02:03:20;;;;;;;4.20;3.80;;;8.90;92.00;;;;;;5096317;28;20452;-46
2022/05/31 02:05:53;;;;;;;4.13;3.73;;;8.90;92.40;;;;;;5097493;28;20192;-45
2022/05/31 02:08:21;;;;;;;4.67;4.27;;;8.90;92.50;;;;;;5082457;28;20482;-46
2022/05/31 02:10:47;;;;;;;4.37;3.97;;;8.90;92.50;;;;;;5100765;28;20439;-45
2022/05/31 02:13:14;;;;;;;5.80;4.60;;;8.90;92.60;;;;;;5100124;28;20772;-45
2022/05/31 02:15:40;;;;;;;4.40;4.00;;;8.80;92.70;;;;;;5100223;28;20422;-46
2022/05/31 02:18:06;;;;;;;3.80;3.50;;;8.80;92.80;;;;;;5099813;28;20411;-45
2022/05/31 02:20:31;;;;;;;4.83;4.00;;;8.80;92.90;;;;;;5094243;28;20428;-45
2022/05/31 02:22:57;;;;;;;8.93;4.37;;;8.80;93.00;;;;;;5099607;28;20423;-46
2022/05/31 02:25:23;;;;;;;5.23;4.27;;;8.80;93.00;;;;;;5099572;28;20200;-46
2022/05/31 02:27:48;;;;;;;5.00;4.43;;;8.80;93.10;;;;;;5099891;28;20293;-46
2022/05/31 02:30:14;;;;;;;4.77;4.37;;;8.80;92.90;;;;;;5099181;28;20181;-45
2022/05/31 02:32:40;;;;;;;6.40;4.80;;;8.70;92.60;;;;;;5099671;28;20173;-45
2022/05/31 02:35:09;;;;;;;5.37;4.40;;;8.70;92.70;;;;;;5100037;28;20734;-46
2022/05/31 02:37:35;;;;;;;4.90;4.50;;;8.60;92.70;;;;;;5099723;28;20420;-45
2022/05/31 02:40:01;;;;;;;4.40;4.00;;;8.60;92.80;;;;;;5099273;28;20434;-46
2022/05/31 02:42:27;;;;;;;4.10;3.77;;;8.50;92.90;;;;;;5099330;28;20430;-45
2022/05/31 02:44:53;;;;;;;4.90;4.40;;;8.50;93.20;;;;;;5099091;28;20480;-45
2022/05/31 02:47:19;;;;;;;6.20;5.07;;;8.50;93.30;;;;;;5098748;28;20201;-45
2022/05/31 02:49:45;;;;;;;4.50;3.90;;;8.50;93.30;;;;;;5099038;28;20440;-46
2022/05/31 02:52:11;;;;;;;5.00;4.50;;;8.40;93.40;;;;;;5098943;28;20450;-45
2022/05/31 02:54:37;;;;;;;5.63;4.23;;;8.40;93.50;;;;;;5099427;28;20518;-45
2022/05/31 02:57:04;;;;;;;4.90;4.50;;;8.30;93.70;;;;;;5099779;28;20417;-45
2022/05/31 02:59:30;;;;;;;5.50;4.43;;;8.30;93.80;;;;;;5099569;28;20438;-46
2022/05/31 03:01:55;;;;;;;4.30;3.90;;;8.20;93.70;;;;;;5098997;28;20426;-45
2022/05/31 03:04:21;;;;;;;4.30;3.97;;;8.20;93.90;;;;;;5098579;28;20440;-45
2022/05/31 03:06:47;;;;;;;4.40;4.00;;;8.20;94.00;;;;;;5097975;28;20520;-45
2022/05/31 03:09:12;;;;;;;5.20;4.70;;;8.20;94.10;;;;;;5097267;28;20208;-45
2022/05/31 03:11:53;;;;;;;5.17;4.67;;;8.20;94.20;;;;;;5098180;28;20185;-45
2022/05/31 03:14:20;;;;;;;7.77;3.90;;;8.10;94.00;;;;;;5097118;28;20551;-45
2022/05/31 03:16:50;;;;;;;5.93;4.80;;;8.10;94.10;;;;;;5096971;28;20421;-46
2022/05/31 03:19:21;;;;;;;5.43;5.00;;;8.10;94.30;;;;;;5097444;28;20484;-45
2022/05/31 03:21:51;;;;;;;4.50;4.10;;;8.10;94.50;;;;;;5096572;28;20483;-45
2022/05/31 03:24:20;;;;;;;5.77;4.50;;;8.10;94.50;;;;;;5095343;28;20436;-46
2022/05/31 03:26:47;;;;;;;4.70;4.30;;;8.10;94.50;;;;;;5094320;28;20523;-45
2022/05/31 03:29:12;;;;;;;4.87;4.37;;;8.10;94.50;;;;;;5093193;28;20475;-45
2022/05/31 03:31:38;;;;;;;6.67;5.13;;;8.10;94.50;;;;;;5095425;28;20425;-45
2022/05/31 03:34:04;;;;;;;4.97;4.00;;;8.10;94.70;;;;;;5096505;28;20486;-45
2022/05/31 03:36:30;;;;;;;6.00;4.67;;;8.00;94.60;;;;;;5098019;28;20576;-46
2022/05/31 03:38:55;;;;;;;4.80;4.30;;;8.10;94.60;;;;;;5098486;28;20472;-45
2022/05/31 03:41:21;;;;;;;5.50;5.00;;;8.10;94.50;;;;;;5097716;28;20176;-46
2022/05/31 03:43:47;;;;;;;4.50;4.10;;;8.10;94.70;;;;;;5098211;28;20241;-46
2022/05/31 03:46:14;;;;;;;4.90;3.90;;;8.10;94.70;;;;;;5098007;28;20570;-46
2022/05/31 03:48:39;;;;;;;6.17;4.23;;;8.10;94.60;;;;;;5098413;28;20953;-46
2022/05/31 03:51:07;;;;;;;5.10;4.43;;;8.10;94.50;;;;;;5098153;28;20504;-46
2022/05/31 03:53:34;;;;;;;6.07;4.90;;;8.20;94.50;;;;;;5097368;28;20186;-46
2022/05/31 03:56:04;;;;;;;4.47;4.07;;;8.20;94.40;;;;;;5096738;28;20410;-46
2022/05/31 03:58:31;;;;;;;5.20;4.70;;;8.20;94.30;;;;;;5096195;28;20511;-45
2022/05/31 04:00:57;;;;;;;4.37;3.97;;;8.20;94.30;;;;;;5096122;28;20479;-46
2022/05/31 04:03:23;;;;;;;6.90;4.07;;;8.20;94.30;;;;;;5096259;28;20442;-46
2022/05/31 04:05:49;;;;;;;4.63;4.23;;;8.30;94.40;;;;;;5094269;28;20863;-46
2022/05/31 04:08:15;;;;;;;5.23;4.73;;;8.30;94.30;;;;;;5095984;28;20481;-46
2022/05/31 04:10:42;;;;;;;5.40;4.50;;;8.40;94.30;;;;;;5096313;28;20484;-45
2022/05/31 04:13:09;;;;;;;4.53;3.93;;;8.40;94.30;;;;;;5096766;28;20173;-45
2022/05/31 04:15:34;;;;;;;5.10;4.70;;;8.40;94.30;;;;;;5096116;28;20433;-45
2022/05/31 04:18:01;;;;;;;5.30;3.70;;;8.50;94.30;;;;;;5095540;28;20720;-45
2022/05/31 04:20:26;;;;;;;4.80;4.30;;;8.50;94.20;;;;;;5095896;28;20582;-45
2022/05/31 04:23:57;;;;;;;4.73;4.33;;;8.60;94.00;;;;;;5096635;28;20422;-46
2022/05/31 04:25:38;;;;;;;4.40;4.00;;;8.60;93.90;;;;;;5096014;28;20197;-45
2022/05/31 04:28:03;;;;;;;5.23;4.73;;;8.60;93.70;;;;;;5096124;28;20493;-45
2022/05/31 04:30:29;;;;;;;5.90;5.23;;;8.70;93.80;;;;;;5096879;28;20455;-45
2022/05/31 04:32:55;;;;;;;5.03;4.53;;;8.70;93.80;;;;;;5096779;28;20504;-45
2022/05/31 04:35:20;;;;;;;6.03;4.67;;;8.80;93.70;;;;;;5095762;28;20766;-45
2022/05/31 04:37:46;;;;;;;5.33;4.83;;;8.90;93.60;;;;;;5095678;28;20190;-46
2022/05/31 04:40:12;;;;;;;5.67;4.47;;;8.90;93.40;;;;;;5095071;28;20517;-45
2022/05/31 04:42:39;;;;;;;5.07;4.60;;;9.00;93.30;;;;;;5095955;28;20194;-46
2022/05/31 04:45:06;;;;;;;5.47;4.07;;;9.10;93.30;;;;;;5094800;28;20430;-45
2022/05/31 04:47:32;;;;;;;5.00;4.33;;;9.20;93.40;;;;;;5095420;28;20534;-46
2022/05/31 04:49:57;;;;;;;5.17;4.67;;;9.20;93.30;;;;;;5095790;28;20423;-45
2022/05/31 04:52:23;;;;;;;5.53;4.10;;;9.30;93.20;;;;;;5097294;28;20513;-46
2022/05/31 04:54:49;;;;;;;5.50;4.90;;;9.40;92.90;;;;;;5096889;28;20165;-45
2022/05/31 04:57:14;;;;;;;6.90;4.50;;;9.60;92.70;;;;;;5095954;28;20267;-45
2022/05/31 04:59:40;;;;;;;3.83;3.53;;;9.60;92.30;;;;;;5096319;28;20236;-46
2022/05/31 05:02:05;;;;;;;6.77;4.27;;;9.70;92.10;;;;;;5095929;28;20579;-46
2022/05/31 05:04:31;;;;;;;5.60;5.10;;;9.80;92.20;;;;;;5095054;28;20179;-45
2022/05/31 05:06:57;;;;;;;5.43;4.57;;;9.90;91.90;;;;;;5099142;28;20169;-46
2022/05/31 05:09:23;;;;;;;5.20;4.70;;;10.00;91.10;;;;;;5098795;28;20547;-46
2022/05/31 05:11:48;;;;;;;5.10;4.70;;;10.20;90.90;;;;;;5099213;28;20430;-46
2022/05/31 05:14:14;;;;;;;5.00;4.50;;;10.30;90.80;;;;;;5099028;28;20183;-46
2022/05/31 05:16:39;;;;;;;4.77;3.93;;;10.40;90.70;;;;;;5097245;28;20177;-45
2022/05/31 05:19:05;;;;;;;5.67;5.17;;;10.60;90.50;;;;;;5099401;28;20262;-46
2022/05/31 05:21:31;;;;;;;5.30;4.70;;;10.70;90.00;;;;;;5097449;28;20185;-46
2022/05/31 05:23:57;;;;;;;5.30;4.40;;;10.80;89.20;;;;;;5096652;28;20212;-45
2022/05/31 05:26:22;;;;;;;4.17;3.77;;;11.00;88.90;;;;;;5095739;28;20525;-46
2022/05/31 05:31:35;;;;;;;5.53;4.90;;;11.30;88.30;;;;;;5096559;28;20175;-46
2022/05/31 05:34:02;;;;;;;4.40;4.00;;;11.50;88.00;;;;;;5097834;28;20439;-46
2022/05/31 05:36:28;;;;;;;4.07;3.67;;;11.70;87.90;;;;;;5094866;28;20693;-46
2022/05/31 05:38:54;;;;;;;12.90;5.30;;;12.00;87.30;;;;;;5094122;28;20714;-45
2022/05/31 05:41:22;;;;;;;5.50;4.40;;;12.30;85.40;;;;;;5093332;28;20527;-46
2022/05/31 05:43:48;;;;;;;5.07;3.80;;;12.50;83.40;;;;;;5088700;28;20293;-45
2022/05/31 05:46:25;;;;;;;5.57;4.90;;;12.60;82.40;;;;;;5092409;28;20519;-46
2022/05/31 05:48:51;;;;;;;6.30;5.10;;;12.70;81.70;;;;;;5092311;28;20468;-46
2022/05/31 05:51:29;;;;;;;5.57;5.03;;;12.70;81.50;;;;;;5093072;28;20845;-45
2022/05/31 05:53:56;;;;;;;7.07;6.37;;;12.80;81.70;;;;;;5093608;28;20177;-45
2022/05/31 05:56:22;;;;;;;6.00;5.40;;;13.00;81.70;;;;;;5096067;28;20483;-45
2022/05/31 05:58:48;;;;;;;5.40;4.90;;;13.20;81.10;;;;;;5095409;28;20451;-45
2022/05/31 06:01:25;;;;;;;5.63;4.67;;;13.50;80.60;;;;;;5097249;28;20411;-46
2022/05/31 06:03:58;;;;;;;4.90;4.50;;;13.90;79.70;;;;;;5095442;28;20431;-45
2022/05/31 06:06:25;;;;;;;4.93;4.30;;;14.20;78.80;;;;;;5095887;28;20672;-46
2022/05/31 06:08:55;;;;;;;5.60;5.10;;;14.30;77.80;;;;;;5096196;28;20498;-45
2022/05/31 06:11:27;;;;;;;5.37;4.87;;;14.50;77.30;;;;;;5097075;28;20506;-46
2022/05/31 06:14:09;;;;;;;5.20;4.70;;;14.70;76.50;;;;;;5096313;28;20447;-46
2022/05/31 06:16:39;;;;;;;10.23;8.07;;;15.00;76.10;;;;;;5095794;28;20436;-46
2022/05/31 06:19:18;;;;;;;12.73;11.20;;;15.10;75.50;;;;;;5096201;28;20898;-46
2022/05/31 06:21:44;;;;;;;4.37;3.93;;;15.30;74.80;;;;;;5096567;28;20440;-45
2022/05/31 06:24:10;;;;;;;6.07;3.90;;;15.40;73.80;;;;;;5096898;28;20435;-45
2022/05/31 06:26:35;;;;;;;4.77;3.10;;;15.60;73.00;;;;;;5098005;28;20480;-46
2022/05/31 06:29:03;;;;;;;6.27;4.13;;;15.80;71.70;;;;;;5098268;28;20262;-46
2022/05/31 06:31:29;;;;;;;3.80;3.00;;;15.90;70.40;;;;;;5096292;28;20171;-45
2022/05/31 06:33:55;;;;;;;3.10;2.57;;;16.10;69.60;;;;;;5096094;28;20485;-45
2022/05/31 06:36:20;;;;;;;2.90;2.40;;;16.20;68.30;;;;;;5095968;28;20404;-46
2022/05/31 06:38:46;;;;;;;3.40;3.10;;;16.40;66.80;;;;;;5094637;28;20231;-45
2022/05/31 06:41:12;;;;;;;2.77;2.57;;;16.60;65.40;;;;;;5094602;28;20175;-46
2022/05/31 06:43:38;;;;;;;4.43;2.73;;;16.60;63.90;;;;;;5095038;28;20186;-46
2022/05/31 06:46:08;;;;;;;3.03;2.40;;;16.50;63.40;;;;;;5095529;28;20833;-45
2022/05/31 06:48:34;;;;;;;4.13;2.80;;;16.50;64.20;;;;;;5093767;28;20205;-46
2022/05/31 06:51:08;;;;;;;3.30;2.30;;;16.70;64.40;;;;;;5094550;28;20412;-46
2022/05/31 06:58:52;;;;;;;6.27;2.80;;;17.30;64.00;;;;;;5095109;28;20440;-46
2022/05/31 07:01:18;;;;;;;3.60;2.40;;;17.50;62.80;;;;;;5095435;28;20639;-46
2022/05/31 07:03:43;;;;;;;2.50;1.90;;;17.60;62.40;;;;;;5097228;28;20186;-45
2022/05/31 07:06:09;;;;;;;3.60;2.80;;;17.80;62.50;;;;;;5096678;28;20186;-44
2022/05/31 07:08:35;;;;;;;2.87;2.50;;;18.10;62.00;;;;;;5096113;28;20304;-43
2022/05/31 07:11:01;;;;;;;2.17;1.97;;;18.30;58.30;;;;;;5097853;28;20183;-43
2022/05/31 07:13:27;;;;;;;2.80;2.37;;;18.40;58.40;;;;;;5097188;28;20534;-43
2022/05/31 07:15:53;;;;;;;3.20;2.23;;;18.60;57.70;;;;;;5095348;28;20952;-43
2022/05/31 07:18:19;;;;;;;2.40;2.00;;;19.00;57.30;;;;;;5096178;28;20188;-43
2022/05/31 07:20:45;;;;;;;4.80;2.50;;;19.20;57.30;;;;;;5096341;28;20261;-45
2022/05/31 07:23:11;;;;;;;2.97;2.23;;;19.50;56.30;;;;;;5093418;28;20980;-43
2022/05/31 07:25:37;;;;;;;2.60;2.30;;;19.50;56.00;;;;;;5093062;28;20419;-44
2022/05/31 07:28:03;;;;;;;2.50;2.30;;;19.70;55.60;;;;;;5093089;28;20764;-43
2022/05/31 07:30:28;;;;;;;5.30;2.50;;;19.90;55.30;;;;;;5096310;28;20183;-43
2022/05/31 07:32:54;;;;;;;2.70;2.50;;;20.00;55.40;;;;;;5095772;28;20512;-44
2022/05/31 07:35:20;;;;;;;3.00;2.23;;;20.30;55.50;;;;;;5095809;28;20179;-49
2022/05/31 07:37:46;;;;;;;4.57;2.30;;;20.80;53.40;;;;;;5092812;28;20220;-42
2022/05/31 07:40:11;;;;;;;4.13;2.47;;;21.20;52.10;;;;;;5092939;28;20484;-46
2022/05/31 07:42:37;;;;;;;2.50;1.87;;;21.40;51.20;;;;;;5093863;28;20170;-43
2022/05/31 07:45:03;;;;;;;2.40;2.20;;;21.60;50.60;;;;;;5095158;28;20183;-46
2022/05/31 07:47:29;;;;;;;2.77;2.40;;;21.50;49.40;;;;;;5095719;28;20216;-42
2022/05/31 07:49:56;;;;;;;2.70;2.50;;;21.40;49.10;;;;;;5095563;28;20496;-43
2022/05/31 07:52:22;;;;;;;3.03;1.90;;;21.40;49.90;;;;;;5094290;28;20419;-42
2022/05/31 07:54:47;;;;;;;2.00;1.63;;;21.70;49.30;;;;;;5091915;28;20441;-45
2022/05/31 07:59:58;;;;;;;2.90;2.57;;;22.30;49.00;;;;;;5094407;28;20202;-45
2022/05/31 08:02:23;;;;;;;3.47;2.00;;;22.50;48.10;;;;;;5095065;28;20519;-43
2022/05/31 08:04:49;;;;;;;2.30;1.80;;;22.60;47.20;;;;;;5093727;28;20187;-43
2022/05/31 08:07:16;;;;;;;4.67;2.30;;;22.40;46.70;;;;;;5092309;28;20182;-44
2022/05/31 08:09:41;;;;;;;3.33;1.90;;;22.10;47.10;;;;;;5090407;28;20191;-43
2022/05/31 08:12:11;;;;;;;1.90;1.67;;;22.00;47.90;;;;;;5094535;28;20414;-41
2022/05/31 08:14:36;;;;;;;2.90;2.40;;;22.40;48.10;;;;;;5093684;28;20188;-40
2022/05/31 08:17:03;;;;;;;2.10;1.90;;;22.50;47.20;;;;;;5093996;28;20483;-43
2022/05/31 08:19:30;;;;;;;1.90;1.80;;;22.80;47.10;;;;;;5091530;28;20430;-45
2022/05/31 08:21:56;;;;;;;2.10;1.90;;;23.00;46.40;;;;;;5093632;28;20476;-43
2022/05/31 08:24:23;;;;;;;2.50;2.30;;;23.10;46.50;;;;;;5092588;28;20850;-43
2022/05/31 08:26:49;;;;;;;2.27;2.00;;;23.40;46.10;;;;;;5094675;28;20482;-43
2022/05/31 08:29:17;;;;;;;2.10;1.90;;;23.60;45.60;;;;;;5094529;28;20474;-45
2022/05/31 08:31:43;;;;;;;3.10;2.13;;;24.00;45.80;;;;;;5095385;28;20818;-44
2022/05/31 08:34:10;;;;;;;2.20;2.00;;;24.10;45.00;;;;;;5094518;28;20441;-43
2022/05/31 08:36:36;;;;;;;2.90;1.87;;;24.30;44.50;;;;;;5094842;28;20413;-42
2022/05/31 08:39:01;;;;;;;2.87;2.10;;;24.80;44.30;;;;;;5093608;28;20478;-47
2022/05/31 08:41:30;;;;;;;4.17;2.13;;;25.40;43.30;;;;;;5093526;28;20663;-41
2022/05/31 08:44:05;;;;;;;2.40;2.20;;;25.60;42.30;;;;;;5092559;28;20191;-43
2022/05/31 08:46:39;;;;;;;2.70;2.03;;;25.80;41.70;;;;;;5095378;28;20423;-42
2022/05/31 08:49:18;;;;;;;3.93;1.93;;;26.20;41.60;;;;;;5095061;28;20495;-43
2022/05/31 08:52:11;;;;;;;2.60;2.30;;;26.40;40.50;;;;;;5095501;28;20441;-42
2022/05/31 08:57:35;;;;;;;3.17;2.40;;;27.30;39.70;;;;;;5092096;28;20703;-41
2022/05/31 09:00:30;;;;;;;2.37;2.17;;;27.30;38.70;;;;;;5093689;28;20425;-41
2022/05/31 09:03:18;;;;;;;2.80;2.33;;;26.70;38.60;;;;;;5090773;28;20434;-42
2022/05/31 09:06:01;;;;;;;2.43;1.90;;;26.60;39.30;;;;;;5094649;28;20425;-42
2022/05/31 09:08:36;;;;;;;3.70;2.47;;;26.90;39.00;;;;;;5094774;28;20488;-44
2022/05/31 09:11:15;;;;;;;3.10;2.80;;;26.90;39.20;;;;;;5094399;28;20441;-42
2022/05/31 09:13:55;;;;;;;3.67;2.20;;;26.80;38.50;;;;;;5092258;28;20425;-43
2022/05/31 09:16:40;;;;;;;3.50;2.10;;;27.10;38.50;;;;;;5093974;28;20432;-44
2022/05/31 09:19:08;;;;;;;2.10;1.90;;;27.80;38.20;;;;;;5093850;28;20433;-46
2022/05/31 09:21:37;;;;;;;2.57;1.70;;;28.60;37.60;;;;;;5095694;28;20410;-44
2022/05/31 09:24:05;;;;;;;3.50;1.90;;;29.60;37.10;;;;;;5093677;28;20722;-43
2022/05/31 09:26:51;;;;;;;2.40;2.20;;;30.00;36.10;;;;;;5091552;28;20403;-45
2022/05/31 09:29:31;;;;;;;3.30;3.00;;;30.60;34.90;;;;;;5089769;28;20516;-42
2022/05/31 09:32:14;;;;;;;5.13;2.47;;;30.30;34.80;;;;;;5091174;28;20421;-41
2022/05/31 09:35:08;;;;;;;5.23;2.43;;;30.30;34.70;;;;;;5091626;28;20430;-42
2022/05/31 09:37:53;;;;;;;2.30;2.10;;;30.50;34.50;;;;;;5091421;28;20414;-45
2022/05/31 09:40:41;;;;;;;4.03;2.60;;;30.60;34.30;;;;;;5091247;28;20447;-44
2022/05/31 09:43:31;;;;;;;2.47;2.07;;;30.90;34.20;;;;;;5091304;28;20832;-41
2022/05/31 09:46:16;;;;;;;3.10;2.10;;;30.80;33.50;;;;;;5094737;28;20414;-45
2022/05/31 09:48:47;;;;;;;4.30;2.23;;;30.40;33.70;;;;;;5093396;28;20448;-43
2022/05/31 09:51:25;;;;;;;5.00;2.30;;;30.30;34.50;;;;;;5095828;28;20815;-43
2022/05/31 09:59:25;;;;;;;5.10;2.90;;;33.10;31.10;;;;;;5095424;28;20419;-46
2022/05/31 10:01:51;;;;;;;2.67;2.47;;;33.60;32.30;;;;;;5094342;28;20415;-45
2022/05/31 10:04:35;;;;;;;4.90;2.10;;;34.60;30.70;;;;;;5095844;28;20443;-42
2022/05/31 10:07:06;;;;;;;2.40;2.20;;;35.40;29.90;;;;;;5078153;28;20361;-44
2022/05/31 10:09:40;;;;;;;4.33;2.10;;;36.10;28.10;;;;;;5094673;28;20508;-44
2022/05/31 10:12:12;;;;;;;4.73;2.57;;;35.90;27.80;;;;;;5087083;28;20403;-46
2022/05/31 10:14:44;;;;;;;2.73;2.13;;;35.00;27.90;;;;;;5075916;28;20851;-46
2022/05/31 10:17:29;;;;;;;2.90;2.60;;;33.70;28.60;;;;;;5076037;28;20720;-45
2022/05/31 10:20:21;;;;;;;3.13;2.07;;;32.50;29.40;;;;;;5076516;28;20508;-46
2022/05/31 10:23:06;;;;;;;2.33;2.13;;;31.80;29.80;;;;;;5074466;28;20587;-45
2022/05/31 10:25:53;;;;;;;2.40;2.20;;;31.50;30.00;;;;;;5074035;28;20671;-47
2022/05/31 10:28:50;;;;;;;3.20;2.10;;;31.10;30.00;;;;;;5073608;28;20462;-49
2022/05/31 10:31:35;;;;;;;4.00;2.00;;;31.20;30.60;;;;;;5070407;28;20567;-47
2022/05/31 10:34:25;;;;;;;2.40;2.07;;;32.40;29.80;;;;;;5074897;28;20818;-47
2022/05/31 10:36:54;;;;;;;5.33;2.20;;;33.50;29.40;;;;;;5068681;28;20425;-49
2022/05/31 10:39:27;;;;;;;3.13;2.80;;;34.00;29.10;;;;;;5074795;28;20401;-49
2022/05/31 10:41:55;;;;;;;3.20;2.27;;;33.60;30.00;;;;;;5073365;28;20422;-48
2022/05/31 10:44:35;;;;;;;4.90;2.80;;;32.90;30.90;;;;;;5073047;28;20447;-50
2022/05/31 10:47:09;;;;;;;4.53;2.70;;;32.50;31.80;;;;;;5073958;28;20843;-47
2022/05/31 10:49:35;;;;;;;2.57;2.27;;;32.30;32.40;;;;;;5074086;28;20461;-49
2022/05/31 10:52:29;;;;;;;3.77;2.60;;;32.70;32.30;;;;;;5076524;28;20811;-50
2022/05/31 10:55:00;;;;;;;2.90;2.57;;;33.40;32.00;;;;;;5056945;28;20660;-46
2022/05/31 10:57:27;;;;;;;2.87;2.43;;;34.00;30.70;;;;;;5074217;28;20428;-49
2022/05/31 11:00:05;;;;;;;3.30;2.70;;;34.20;31.10;;;;;;5074729;28;20435;-48
2022/05/31 11:02:59;;;;;;;5.50;2.60;;;34.70;30.30;;;;;;5075634;28;20390;-51
2022/05/31 11:05:44;;;;;;;2.33;2.13;;;34.60;30.20;;;;;;5090541;28;20781;-50
2022/05/31 11:11:57;;;;;;;2.20;2.00;;;36.10;29.20;;;;;;5072496;28;20455;-46
2022/05/31 11:14:37;;;;;;;3.63;2.10;;;36.90;29.00;;;;;;5070522;28;20462;-46
2022/05/31 11:17:30;;;;;;;2.47;2.10;;;37.90;28.50;;;;;;5074937;28;20737;-48
2022/05/31 11:20:30;;;;;;;2.40;2.20;;;38.40;28.00;;;;;;5075716;28;20428;-49
2022/05/31 11:23:39;;;;;;;2.60;2.40;;;38.10;27.90;;;;;;5075029;28;20846;-50
2022/05/31 11:26:26;;;;;;;3.63;2.60;;;38.10;27.40;;;;;;5078116;28;20404;-52
2022/05/31 11:29:10;;;;;;;3.07;2.20;;;38.60;27.20;;;;;;5096018;28;20441;-48
2022/05/31 11:31:56;;;;;;;5.00;2.33;;;38.70;27.10;;;;;;5094138;28;20420;-49
2022/05/31 11:34:44;;;;;;;3.33;2.37;;;38.90;27.00;;;;;;5094754;28;20424;-49
2022/05/31 11:37:36;;;;;;;2.60;1.87;;;39.40;26.80;;;;;;5094704;28;20473;-50
2022/05/31 11:40:21;;;;;;;2.40;2.10;;;40.50;26.10;;;;;;5093576;28;20520;-48
2022/05/31 11:42:47;;;;;;;3.87;2.20;;;40.30;25.90;;;;;;5092008;28;20404;-49
2022/05/31 11:46:02;;;;;;;3.40;2.40;;;40.20;25.60;;;;;;5091860;28;21003;-48
2022/05/31 11:48:41;;;;;;;3.23;2.13;;;40.30;25.30;;;;;;5073910;28;20196;-49
2022/05/31 11:51:31;;;;;;;4.00;2.50;;;40.50;25.50;;;;;;5089559;28;20455;-49
2022/05/31 11:54:00;;;;;;;3.30;2.60;;;40.60;25.10;;;;;;5090291;28;20429;-50
2022/05/31 11:56:34;;;;;;;3.77;2.10;;;40.40;25.10;;;;;;5091378;28;20731;-49
2022/05/31 11:59:15;;;;;;;2.67;2.30;;;40.10;25.40;;;;;;5092567;28;20477;-49
2022/05/31 12:01:43;;;;;;;3.33;2.77;;;40.40;25.60;;;;;;5093767;28;20700;-50
2022/05/31 12:04:27;;;;;;;3.10;2.10;;;41.20;25.20;;;;;;5094136;28;20693;-50
2022/05/31 12:07:02;;;;;;;3.27;2.63;;;41.40;25.30;;;;;;5094009;28;20700;-52
2022/05/31 12:09:43;;;;;;;4.63;2.47;;;40.40;24.90;;;;;;5093120;28;20457;-49
2022/05/31 12:12:14;;;;;;;3.40;2.40;;;38.70;25.30;;;;;;5090046;28;20455;-48
2022/05/31 12:14:45;;;;;;;2.90;2.60;;;37.10;25.70;;;;;;5089748;28;20433;-49
2022/05/31 12:17:11;;;;;;;4.37;3.03;;;35.60;27.20;;;;;;5092359;28;20431;-50
2022/05/31 12:20:09;;;;;;;3.60;2.40;;;34.50;27.40;;;;;;5090547;28;20470;-50
2022/05/31 12:22:38;;;;;;;3.33;2.30;;;33.70;27.80;;;;;;5088962;28;20411;-48
2022/05/31 12:25:24;;;;;;;2.20;2.00;;;32.90;28.20;;;;;;5091320;28;20865;-51
2022/05/31 12:27:56;;;;;;;2.70;2.27;;;32.50;28.60;;;;;;5082355;28;20432;-54
2022/05/31 12:30:28;;;;;;;2.60;2.07;;;32.70;28.90;;;;;;5091739;28;20422;-50
2022/05/31 12:32:54;;;;;;;2.53;2.13;;;32.40;28.50;;;;;;5092820;28;20694;-48
2022/05/31 12:35:32;;;;;;;3.50;2.27;;;32.30;28.90;;;;;;5089688;28;20418;-47
2022/05/31 12:38:00;;;;;;;4.67;2.13;;;32.10;28.80;;;;;;5092136;28;20755;-50
2022/05/31 12:40:38;;;;;;;2.50;2.10;;;32.60;28.60;;;;;;5094554;28;20448;-48
2022/05/31 12:43:15;;;;;;;3.10;2.40;;;33.20;28.40;;;;;;5093242;28;20475;-53
2022/05/31 12:45:41;;;;;;;3.37;2.50;;;33.90;27.50;;;;;;5094073;28;20820;-52
2022/05/31 12:48:10;;;;;;;2.97;2.40;;;34.20;28.00;;;;;;5094423;28;20495;-50
2022/05/31 12:50:54;;;;;;;2.90;2.10;;;35.20;27.20;;;;;;5093777;28;20881;-50
2022/05/31 12:53:23;;;;;;;2.50;2.30;;;36.60;26.80;;;;;;5095942;28;20429;-51
2022/05/31 12:55:58;;;;;;;3.40;2.33;;;37.60;26.10;;;;;;5095676;28;20523;-50
2022/05/31 12:58:42;;;;;;;3.20;2.27;;;38.10;25.60;;;;;;5095144;28;20736;-51
2022/05/31 13:01:28;;;;;;;2.70;2.13;;;39.10;25.50;;;;;;5095396;28;20912;-48
2022/05/31 13:04:07;;;;;;;2.37;1.90;;;40.10;24.80;;;;;;5064141;28;20433;-46
2022/05/31 13:06:58;;;;;;;2.47;1.93;;;40.90;24.60;;;;;;5096576;28;20817;-49
2022/05/31 13:09:24;;;;;;;3.37;2.50;;;41.20;24.40;;;;;;5095941;28;20437;-52
2022/05/31 13:20:56;;;;;;;4.13;2.30;;;41.70;23.40;;;;;;5092335;28;20426;-49
2022/05/31 13:23:42;;;;;;;3.97;2.40;;;41.30;23.60;;;;;;5089332;28;20701;-48
2022/05/31 13:26:20;;;;;;;2.00;1.80;;;40.70;23.90;;;;;;5088625;28;20422;-50
2022/05/31 13:29:08;;;;;;;3.40;2.20;;;40.60;23.90;;;;;;5093410;28;20728;-50
2022/05/31 13:31:37;;;;;;;5.10;2.00;;;40.20;23.80;;;;;;5094038;28;20443;-48
2022/05/31 13:34:07;;;;;;;3.37;2.07;;;39.70;23.50;;;;;;5093310;28;20760;-48
2022/05/31 13:36:44;;;;;;;2.30;2.00;;;39.30;24.20;;;;;;5094523;28;20419;-49
2022/05/31 13:39:13;;;;;;;3.30;2.30;;;39.10;24.10;;;;;;5075769;28;20617;-48
2022/05/31 13:41:47;;;;;;;3.93;2.17;;;39.10;24.00;;;;;;5092735;28;20527;-49
2022/05/31 13:44:14;;;;;;;1.80;1.70;;;39.10;24.10;;;;;;5091847;28;20434;-51